Time;durP1;ratioP1;P1;durP2;ratioP2;P2;SDS_P1;SDS_P2;PMS_P1;PMS_P2;Temp;Humidity;BMP_temperature;BMP_pressure;BME280_temperature;BME280_humidity;BME280_pressure;Samples;Min_cycle;Max_cycle;Signal;HPM_P1;HPM_P2
2022/10/09 00:01:34;;;;;;;22.20;2.92;;;9.00;99.90;;;7.70;100.00;101791.66;4955360;28;20027;-84
2022/10/09 00:04:15;;;;;;;26.55;3.42;;;;;;;7.73;100.00;101801.22;4969256;28;20499;-83
2022/10/09 00:07:04;;;;;;;22.33;2.53;;;9.00;99.90;;;7.73;100.00;101807.34;4952597;28;20110;-84
2022/10/09 00:09:33;;;;;;;19.95;3.75;;;9.00;99.90;;;7.70;100.00;101804.78;4946016;23;20452;-82
2022/10/09 00:12:26;;;;;;;26.27;3.22;;;9.00;99.90;;;7.70;100.00;101815.25;4957776;28;20023;-83
2022/10/09 00:14:52;;;;;;;20.70;3.00;;;9.00;99.90;;;7.67;100.00;101812.72;4961698;28;20029;-84
2022/10/09 00:17:21;;;;;;;19.40;2.72;;;9.00;99.90;;;7.66;100.00;101820.59;4958476;28;20035;-84
2022/10/09 00:19:57;;;;;;;20.20;2.65;;;8.90;99.90;;;7.65;100.00;101824.13;4950536;28;20042;-85
2022/10/09 00:22:23;;;;;;;20.30;2.80;;;8.90;99.90;;;7.65;100.00;101821.50;4939259;28;20038;-82
2022/10/09 00:24:49;;;;;;;19.85;2.55;;;;;;;7.59;100.00;101830.31;4948774;28;20023;-83
2022/10/09 00:27:25;;;;;;;24.52;2.97;;;;;;;7.58;100.00;101832.06;4963453;28;20041;-83
2022/10/09 00:30:07;;;;;;;25.27;2.90;;;8.90;99.90;;;7.60;100.00;101835.53;4965151;28;20026;-84
2022/10/09 00:32:33;;;;;;;25.27;3.20;;;;;;;7.60;100.00;101839.88;4950221;28;20035;-82
2022/10/09 00:35:06;;;;;;;27.30;3.08;;;8.80;99.90;;;7.54;100.00;101837.41;4961433;28;20034;-84
2022/10/09 00:37:34;;;;;;;27.70;2.70;;;8.80;99.90;;;7.53;100.00;101839.13;4937925;28;20035;-85
2022/10/09 00:40:00;;;;;;;24.77;2.90;;;8.80;99.90;;;7.52;100.00;101840.03;4956531;28;20034;-83
2022/10/09 00:42:25;;;;;;;24.27;3.20;;;8.80;99.90;;;7.52;100.00;101840.03;4960960;28;20090;-82
2022/10/09 00:45:02;;;;;;;27.42;2.92;;;8.80;99.90;;;7.53;100.00;101847.00;4955661;28;20024;-84
2022/10/09 00:50:41;;;;;;;25.38;4.05;;;8.80;99.90;;;7.58;100.00;101852.16;4990814;23;20047;-83
2022/10/09 00:53:17;;;;;;;22.02;2.85;;;;;;;7.58;100.00;101858.28;4957371;28;20046;-84
2022/10/09 00:55:44;;;;;;;30.17;3.30;;;;;;;7.58;100.00;101853.03;4957558;28;20044;-82
2022/10/09 00:58:37;;;;;;;19.85;2.50;;;8.90;99.90;;;7.60;100.00;101856.50;4956931;28;20485;-82
2022/10/09 01:01:03;;;;;;;32.88;3.30;;;8.90;99.90;;;7.58;100.00;101867.88;4898311;29;20040;-82
2022/10/09 01:03:39;;;;;;;;;;;;;;;;;;;;;
2022/10/09 01:06:55;;;;;;;23.42;2.60;;;8.80;99.90;;;7.61;100.00;101865.22;4939224;28;20019;-82
2022/10/09 01:10:16;;;;;;;26.45;3.08;;;8.90;99.90;;;7.63;100.00;101871.31;4944710;28;20031;-82
2022/10/09 01:13:31;;;;;;;21.67;2.80;;;8.90;99.90;;;7.59;100.00;101875.72;4944221;28;20559;-84
2022/10/09 01:16:31;;;;;;;26.00;2.63;;;8.90;99.90;;;7.63;100.00;101870.47;4942472;28;20062;-85
2022/10/09 01:19:08;;;;;;;23.15;2.78;;;;;;;7.60;100.00;101871.34;4939835;28;20067;-83
2022/10/09 01:22:38;;;;;;;;;;;8.80;99.90;;;7.52;100.00;101868.88;4939915;28;20035;-83
2022/10/09 01:26:16;;;;;;;25.23;2.58;;;8.80;99.90;;;7.47;100.00;101868.06;4888281;29;19926;-83
2022/10/09 01:29:04;;;;;;;23.77;2.53;;;8.80;99.90;;;7.47;100.00;101869.81;4907785;29;20036;-85
2022/10/09 01:31:57;;;;;;;25.13;3.05;;;8.80;99.90;;;7.55;100.00;101879.28;4905947;29;20041;-85
2022/10/09 01:34:38;;;;;;;17.80;2.35;;;;;;;7.57;100.00;101882.75;4907110;29;20040;-85
2022/10/09 01:38:02;;;;;;;23.60;3.03;;;;;;;7.63;100.00;101876.56;4892165;29;20127;-83
2022/10/09 01:40:28;;;;;;;23.92;2.88;;;9.00;99.90;;;7.72;100.00;101881.66;4908341;29;20058;-84
2022/10/09 01:42:55;;;;;;;20.85;2.80;;;;;;;7.75;100.00;101875.47;4907152;29;20036;-82
2022/10/09 01:46:35;;;;;;;22.38;2.80;;;9.00;99.90;;;7.75;100.00;101867.63;4925940;29;20043;-84
2022/10/09 01:50:07;;;;;;;28.10;2.63;;;9.00;99.90;;;7.63;100.00;101876.56;4916679;29;20032;-84
2022/10/09 01:53:14;;;;;;;22.17;2.72;;;8.90;99.90;;;7.50;100.00;101886.38;4900384;29;20044;-83
2022/10/09 01:56:25;;;;;;;20.73;3.33;;;;;;;7.39;100.00;101883.91;4891167;28;20046;-85
2022/10/09 01:59:05;;;;;;;22.30;2.95;;;8.60;99.90;;;7.24;100.00;101878.03;4952062;28;20099;-85
2022/10/09 02:01:36;;;;;;;20.70;2.38;;;;;;;7.21;100.00;101892.00;4941428;28;20041;-83
2022/10/09 02:04:17;;;;;;;14.88;2.50;;;;;;;7.16;100.00;101891.22;4961765;28;20030;-84
2022/10/09 02:06:55;;;;;;;21.45;2.97;;;;;;;7.11;100.00;101895.69;4942433;29;20038;-85
2022/10/09 02:09:47;;;;;;;26.17;2.65;;;8.40;99.90;;;7.01;100.00;101894.91;4957634;28;20029;-84
2022/10/09 02:12:28;;;;;;;23.73;2.97;;;8.30;99.90;;;6.93;100.00;101900.28;4926944;29;20495;-84
2022/10/09 02:14:54;;;;;;;18.73;2.85;;;8.20;99.90;;;6.86;100.00;101903.81;4941351;28;20035;-82
2022/10/09 02:17:47;;;;;;;26.00;3.05;;;8.20;99.90;;;6.85;100.00;101906.50;4942288;29;20023;-85
2022/10/09 02:20:44;;;;;;;21.98;3.83;;;;;;;6.80;100.00;101910.91;4944198;28;20761;-82
2022/10/09 02:23:27;;;;;;;29.77;3.22;;;8.10;99.90;;;6.79;100.00;101915.25;4944668;28;20506;-84
2022/10/09 02:26:04;;;;;;;19.95;2.78;;;8.10;99.90;;;6.83;100.00;101916.97;4947115;29;20039;-83
2022/10/09 02:28:33;;;;;;;17.80;3.33;;;8.10;99.90;;;6.89;100.00;101916.00;4981064;23;20106;-84
2022/10/09 02:31:49;;;;;;;;;;;;;;;;;;;;;
2022/10/09 02:34:56;;;;;;;24.10;3.50;;;8.30;99.90;;;7.16;100.00;101914.81;4890225;28;20038;-86
2022/10/09 02:37:47;;;;;;;30.07;3.17;;;;;;;7.19;100.00;101928.72;4937577;29;20061;-86
2022/10/09 02:40:27;;;;;;;26.20;2.60;;;;;;;7.21;100.00;101926.06;4889869;29;20429;-86
2022/10/09 02:42:56;;;;;;;25.40;2.97;;;;;;;7.21;100.00;101925.22;4928792;29;20404;-86
2022/10/09 02:46:18;;;;;;;;;;;;;;;;;;;;;
2022/10/09 02:48:47;;;;;;;23.88;3.17;;;8.40;99.90;;;7.12;100.00;101924.44;4955340;23;20058;-85
2022/10/09 02:51:25;;;;;;;28.95;3.05;;;8.40;99.90;;;7.11;100.00;101927.97;4947683;28;20031;-86
2022/10/09 02:54:08;;;;;;;37.08;2.85;;;8.40;99.90;;;7.06;100.00;101926.28;4949646;29;20035;-86
2022/10/09 02:57:15;;;;;;;28.10;3.10;;;8.40;99.90;;;6.98;100.00;101929.00;4934034;28;20041;-86
2022/10/09 02:59:56;;;;;;;14.60;3.45;;;;;;;6.94;100.00;101935.16;4951131;28;20471;-86
2022/10/09 03:02:25;;;;;;;27.23;3.42;;;;;;;6.89;100.00;101940.47;4949563;29;20039;-85
2022/10/09 03:05:16;;;;;;;22.45;2.78;;;8.20;99.90;;;6.85;100.00;101940.53;4951064;28;20031;-85
2022/10/09 03:10:52;;;;;;;;;;;8.00;99.90;;;6.65;100.00;101946.84;5010136;23;20062;-85
2022/10/09 03:13:18;;;;;;;27.63;2.70;;;;;;;6.56;100.00;101945.16;4958912;28;19910;-86
2022/10/09 03:15:45;;;;;;;24.05;2.72;;;;;;;6.51;100.00;101948.72;4956580;28;20035;-85
2022/10/09 03:18:24;;;;;;;19.23;2.92;;;7.80;99.90;;;6.47;100.00;101947.88;5061914;23;20122;-85
2022/10/09 03:21:19;;;;;;;23.92;3.03;;;7.80;99.90;;;6.41;100.00;101955.78;4944884;28;20046;-86
2022/10/09 03:23:44;;;;;;;27.42;3.50;;;7.80;99.90;;;6.36;100.00;101939.28;4926310;28;20117;-85
2022/10/09 03:26:36;;;;;;;18.70;2.42;;;7.70;99.90;;;6.35;100.00;101956.72;4939510;29;20440;-85
2022/10/09 03:29:35;;;;;;;27.45;2.88;;;;;;;6.29;100.00;101959.41;4931978;23;20047;-85
2022/10/09 03:32:01;;;;;;;20.73;3.15;;;;;;;6.23;100.00;101964.69;4870984;29;20124;-85
2022/10/09 03:34:39;;;;;;;17.50;2.58;;;;;;;6.20;100.00;101966.44;4865208;29;20041;-85
2022/10/09 03:37:05;;;;;;;22.67;3.00;;;7.50;99.90;;;6.15;100.00;101966.50;4919799;29;20046;-85
2022/10/09 03:40:12;;;;;;;27.45;3.92;;;;;;;6.09;100.00;101972.66;4902736;29;20473;-86
2022/10/09 03:42:38;;;;;;;31.45;2.97;;;7.40;99.90;;;6.03;100.00;101972.69;4855836;29;20061;-85
2022/10/09 03:45:05;;;;;;;31.92;3.63;;;7.40;99.90;;;6.02;100.00;101973.56;4914326;29;20102;-85
2022/10/09 03:47:43;;;;;;;19.08;3.13;;;;;;;6.01;100.00;101979.69;4912500;29;20052;-85
2022/10/09 03:50:09;;;;;;;31.90;3.42;;;7.40;99.90;;;6.00;100.00;101977.06;4914151;29;20032;-85
2022/10/09 03:52:45;;;;;;;22.27;3.30;;;;;;;6.00;100.00;101982.31;4902230;29;20032;-85
2022/10/09 03:55:11;;;;;;;29.42;3.65;;;;;;;6.00;100.00;101982.31;4915641;29;20043;-85
2022/10/09 03:57:46;;;;;;;34.38;4.03;;;;;;;6.00;100.00;101984.91;4916012;29;20106;-85
2022/10/09 04:00:16;;;;;;;21.30;3.55;;;7.30;99.90;;;5.99;100.00;101991.91;4928304;29;20096;-85
2022/10/09 04:02:56;;;;;;;24.60;3.13;;;;;;;5.99;100.00;101991.03;4895962;29;20052;-84
2022/10/09 04:05:21;;;;;;;21.42;3.08;;;7.30;99.90;;;5.93;100.00;101997.13;4982588;23;20048;-79
2022/10/09 04:07:52;;;;;;;20.48;3.10;;;7.30;99.90;;;5.89;100.00;101995.41;4978717;28;20023;-78
2022/10/09 04:10:18;;;;;;;19.88;2.55;;;7.20;99.90;;;5.83;100.00;102006.81;4992822;28;20039;-78
2022/10/09 04:12:44;;;;;;;37.03;3.78;;;7.20;99.90;;;5.76;100.00;101994.63;4990189;28;20027;-78
2022/10/09 04:15:10;;;;;;;19.88;3.88;;;7.10;99.90;;;5.71;100.00;102001.66;4974087;23;20538;-78
2022/10/09 04:17:36;;;;;;;37.25;4.30;;;7.10;99.90;;;5.63;100.00;102008.66;4972633;28;20488;-79
2022/10/09 04:20:10;;;;;;;40.50;4.15;;;7.00;99.90;;;5.56;100.00;102010.44;4955788;29;20059;-79
2022/10/09 04:22:35;;;;;;;24.65;4.00;;;7.00;99.90;;;5.54;100.00;102015.66;4969510;28;20171;-79
2022/10/09 04:25:01;;;;;;;25.50;3.70;;;6.90;99.90;;;5.50;100.00;102018.31;4957138;28;20440;-79
2022/10/09 04:27:27;;;;;;;21.50;3.30;;;6.90;99.90;;;5.49;100.00;102027.88;4955304;28;20050;-79
2022/10/09 04:29:53;;;;;;;34.53;4.05;;;6.90;99.90;;;5.44;100.00;102024.44;4972846;28;20031;-79
2022/10/09 04:32:27;;;;;;;19.02;2.95;;;6.80;99.90;;;5.40;100.00;102029.66;4953702;28;20030;-79
2022/10/09 04:34:53;;;;;;;32.83;4.05;;;6.80;99.90;;;5.31;100.00;102026.22;4938179;28;20492;-79
2022/10/09 04:37:18;;;;;;;32.45;3.65;;;6.80;99.90;;;5.31;100.00;102028.84;4949571;28;20046;-78
2022/10/09 04:39:44;;;;;;;16.25;2.42;;;6.80;99.90;;;5.33;100.00;102039.25;4954267;28;20063;-80
2022/10/09 04:42:18;;;;;;;27.33;4.15;;;6.70;99.90;;;5.30;100.00;102031.44;4970384;28;20035;-78
2022/10/09 04:44:44;;;;;;;30.95;3.95;;;6.70;99.90;;;5.27;100.00;102027.13;4955858;28;20116;-78
2022/10/09 04:47:10;;;;;;;32.28;4.25;;;6.70;99.90;;;5.27;100.00;102031.44;4957615;28;20546;-78
2022/10/09 04:49:36;;;;;;;38.15;4.35;;;6.70;99.90;;;5.30;100.00;102037.53;4939447;29;20039;-78
2022/10/09 04:52:01;;;;;;;31.20;3.47;;;6.70;99.90;;;5.34;100.00;102033.19;4938508;28;20031;-79
2022/10/09 04:54:36;;;;;;;25.40;3.75;;;6.70;99.90;;;5.39;100.00;102038.38;4971872;28;20043;-78
2022/10/09 04:57:01;;;;;;;27.58;4.57;;;6.80;99.90;;;5.42;100.00;102035.75;4960875;28;20519;-78
2022/10/09 04:59:27;;;;;;;33.17;4.40;;;6.80;99.90;;;5.45;100.00;102039.22;4956751;28;20035;-78
2022/10/09 05:01:53;;;;;;;20.52;3.00;;;6.80;99.90;;;5.48;100.00;102041.81;4942825;29;20027;-79
2022/10/09 05:04:27;;;;;;;21.05;3.80;;;6.80;99.90;;;5.49;100.00;102043.56;4956625;28;20027;-79
2022/10/09 05:06:53;;;;;;;32.85;4.75;;;6.80;99.90;;;5.48;100.00;102040.94;4974043;28;20023;-78
2022/10/09 05:09:19;;;;;;;25.38;3.90;;;6.80;99.90;;;5.52;100.00;102045.28;4958831;28;20098;-78
2022/10/09 05:11:45;;;;;;;27.33;4.40;;;6.90;99.90;;;5.53;100.00;102053.13;4956814;28;20031;-78
2022/10/09 05:14:16;;;;;;;20.92;3.35;;;6.90;99.90;;;5.53;100.00;102052.28;4942386;29;20035;-79
2022/10/09 05:16:42;;;;;;;19.20;3.30;;;6.80;99.90;;;5.51;100.00;102046.19;4962229;28;20035;-78
2022/10/09 05:19:07;;;;;;;25.17;3.67;;;6.80;99.90;;;5.47;100.00;102050.53;4958018;29;20105;-78
2022/10/09 05:21:35;;;;;;;12.50;2.72;;;6.80;99.90;;;5.41;100.00;102054.91;4926397;29;20031;-78
2022/10/09 05:24:01;;;;;;;13.68;2.47;;;6.80;99.90;;;5.35;100.00;102061.03;4934699;28;20755;-78
2022/10/09 05:26:32;;;;;;;14.52;3.22;;;6.70;99.90;;;5.29;100.00;102055.81;4957763;29;20448;-78
2022/10/09 05:28:58;;;;;;;22.10;3.63;;;6.60;99.90;;;5.25;100.00;102056.72;4955680;28;20055;-78
2022/10/09 05:31:27;;;;;;;22.83;3.15;;;6.60;99.90;;;5.26;100.00;102066.28;4926708;29;20077;-79
2022/10/09 05:34:01;;;;;;;32.72;4.88;;;6.60;99.90;;;5.26;100.00;102067.16;4939812;29;20034;-78
2022/10/09 05:36:27;;;;;;;26.38;4.35;;;6.60;99.90;;;5.26;100.00;102068.91;4940945;29;20122;-78
2022/10/09 05:38:54;;;;;;;26.38;4.90;;;6.60;99.90;;;5.25;100.00;102068.03;4939994;29;20035;-78
2022/10/09 05:41:19;;;;;;;26.08;4.53;;;6.60;99.90;;;5.30;100.00;102073.25;4941501;28;20027;-78
2022/10/09 05:43:48;;;;;;;31.20;4.68;;;6.60;99.90;;;5.31;100.00;102073.25;4941159;28;20054;-78
2022/10/09 05:46:16;;;;;;;20.35;4.05;;;6.70;99.90;;;5.43;100.00;102072.31;4956093;28;20031;-78
2022/10/09 05:48:45;;;;;;;33.55;4.82;;;6.70;99.90;;;5.57;100.00;102074.88;4957155;29;20043;-78
2022/10/09 05:51:20;;;;;;;36.20;6.20;;;6.80;99.90;;;5.72;100.00;102077.44;4970921;28;20034;-78
2022/10/09 05:53:47;;;;;;;22.60;4.70;;;6.90;99.90;;;5.88;100.00;102080.81;4966098;28;20899;-78
2022/10/09 05:56:22;;;;;;;30.13;5.22;;;7.00;99.90;;;6.02;100.00;102085.13;4941341;29;20106;-80
2022/10/09 05:59:21;;;;;;;16.92;4.07;;;7.20;99.90;;;6.19;100.00;102087.66;4972643;28;20042;-78
2022/10/09 06:01:50;;;;;;;23.23;4.63;;;7.30;99.90;;;6.33;100.00;102091.91;4967764;28;20043;-78
2022/10/09 06:04:25;;;;;;;24.63;5.18;;;7.40;99.90;;;6.87;100.00;102099.31;4940591;29;20050;-79
2022/10/09 06:06:51;;;;;;;30.33;6.03;;;7.60;99.90;;;7.14;100.00;102108.66;4941108;28;20030;-79
2022/10/09 06:09:21;;;;;;;34.15;7.43;;;7.80;99.90;;;7.34;100.00;102099.72;4951472;28;20043;-78
2022/10/09 06:11:49;;;;;;;41.42;7.15;;;8.00;99.90;;;7.54;100.00;102104.75;4940978;28;20063;-78
2022/10/09 06:14:15;;;;;;;28.77;5.55;;;8.20;99.90;;;8.13;100.00;102103.06;4973457;28;20035;-79
2022/10/09 06:16:44;;;;;;;23.88;5.80;;;8.40;99.90;;;8.32;100.00;102108.06;4956296;28;20552;-78
2022/10/09 06:19:12;;;;;;;23.08;5.25;;;8.70;99.90;;;9.12;100.00;102119.91;4957236;28;20535;-78
2022/10/09 06:21:45;;;;;;;25.17;4.60;;;9.10;99.90;;;10.53;100.00;102116.91;4924136;29;20035;-78
2022/10/09 06:24:37;;;;;;;31.77;5.00;;;9.60;99.90;;;13.05;90.25;102137.75;4946258;28;20023;-78
2022/10/09 06:27:05;;;;;;;33.88;5.43;;;10.40;99.90;;;13.34;82.02;102124.38;4954298;28;20070;-79
2022/10/09 06:29:31;;;;;;;32.78;4.85;;;11.00;99.90;;;14.26;76.74;102127.13;4956075;28;20042;-79
2022/10/09 06:31:57;;;;;;;29.13;4.10;;;11.50;99.90;;;14.08;74.52;102121.66;4925902;29;20064;-78
2022/10/09 06:34:22;;;;;;;29.55;4.38;;;11.70;99.90;;;13.62;74.27;102118.09;4940449;28;20575;-78
2022/10/09 06:36:48;;;;;;;29.67;3.90;;;11.90;99.90;;;13.40;74.79;102133.88;4924014;28;20054;-79
2022/10/09 06:39:16;;;;;;;22.95;3.75;;;12.30;99.90;;;14.94;71.70;102136.69;4958731;28;20153;-79
2022/10/09 06:41:45;;;;;;;22.17;3.70;;;12.70;99.90;;;15.12;69.27;102131.56;4955163;28;20043;-79
2022/10/09 06:44:12;;;;;;;29.52;4.63;;;13.00;99.90;;;14.66;70.42;102128.19;4924291;29;20059;-78
2022/10/09 06:46:40;;;;;;;21.52;4.10;;;13.20;99.90;;;15.12;69.54;102143.03;4939447;28;20027;-79
2022/10/09 06:49:08;;;;;;;21.15;3.92;;;13.40;99.90;;;15.76;67.46;102149.06;4957351;29;20600;-79
2022/10/09 06:51:34;;;;;;;23.00;3.80;;;13.70;99.90;;;16.34;66.40;102159.63;4939505;29;20527;-79
2022/10/09 06:54:03;;;;;;;32.90;4.57;;;14.10;99.90;;;16.80;65.19;102172.50;4957841;28;20089;-78
2022/10/09 06:56:31;;;;;;;18.83;3.78;;;14.70;99.90;;;18.20;62.13;102184.66;4959733;29;20086;-79
2022/10/09 06:59:05;;;;;;;25.52;4.05;;;15.40;99.90;;;20.23;57.83;102188.59;4944237;28;20035;-79
2022/10/09 07:01:32;;;;;;;16.60;3.58;;;16.50;99.90;;;21.62;54.51;102182.94;4957691;28;20039;-80
2022/10/09 07:04:08;;;;;;;24.70;3.70;;;17.70;99.90;;;23.03;51.64;102187.00;4956659;28;20023;-79
2022/10/09 07:06:39;;;;;;;12.93;2.78;;;18.90;99.90;;;24.18;48.99;102193.25;4956212;28;20039;-80
2022/10/09 07:09:13;;;;;;;19.10;3.10;;;20.10;99.90;;;24.96;47.10;102192.16;4971990;28;20103;-79
2022/10/09 07:11:44;;;;;;;21.17;2.78;;;21.10;99.90;;;25.23;46.30;102193.53;4965753;28;20042;-79
2022/10/09 07:14:15;;;;;;;21.80;3.15;;;21.80;99.90;;;25.47;46.10;102202.16;4958768;28;20432;-80
2022/10/09 07:16:44;;;;;;;13.85;2.65;;;22.40;99.90;;;25.57;45.37;102207.59;4972378;28;20037;-79
2022/10/09 07:19:11;;;;;;;14.07;2.92;;;22.80;99.90;;;25.71;45.18;102215.34;4956307;28;20403;-79
2022/10/09 07:21:40;;;;;;;19.95;3.03;;;23.10;99.90;;;25.86;45.05;102217.69;4956130;28;20274;-79
2022/10/09 07:24:09;;;;;;;17.90;3.63;;;23.50;99.90;;;25.79;44.66;102217.38;4955833;28;20027;-79
2022/10/09 07:26:39;;;;;;;13.07;3.25;;;23.90;99.90;;;26.31;44.33;102225.41;4940896;28;20136;-78
2022/10/09 07:29:11;;;;;;;12.05;2.58;;;24.30;99.90;;;26.70;43.41;102233.59;4957776;28;20031;-79
2022/10/09 07:31:37;;;;;;;16.90;2.85;;;24.80;99.90;;;27.11;42.63;102237.03;4955604;28;20163;-79
2022/10/09 07:34:05;;;;;;;13.02;2.78;;;25.30;99.60;;;27.43;42.15;102247.53;4939317;29;20322;-79
2022/10/09 07:36:31;;;;;;;12.85;3.00;;;25.90;98.90;;;27.79;41.53;102245.00;4938890;29;20050;-79
2022/10/09 07:38:57;;;;;;;16.52;2.63;;;26.40;98.30;;;28.06;40.78;102255.06;4950456;28;20035;-79
2022/10/09 07:41:26;;;;;;;15.10;3.03;;;26.90;97.10;;;28.29;40.32;102260.06;4926554;29;20059;-79
2022/10/09 07:43:52;;;;;;;19.00;3.08;;;27.40;96.40;;;28.45;40.19;102254.00;4950156;28;20476;-80
2022/10/09 07:46:21;;;;;;;11.10;2.67;;;27.70;95.50;;;28.48;40.10;102259.97;4953658;28;20412;-80
2022/10/09 07:48:47;;;;;;;12.95;2.75;;;28.00;94.80;;;28.38;39.97;102259.13;4953182;28;20503;-79
2022/10/09 07:51:21;;;;;;;16.98;3.33;;;28.00;94.40;;;28.25;40.27;102269.47;4941316;28;20039;-79
2022/10/09 07:53:48;;;;;;;14.93;3.28;;;28.10;94.30;;;28.21;40.26;102277.91;4957915;28;20038;-79
2022/10/09 07:56:28;;;;;;;16.02;3.20;;;28.30;93.90;;;28.19;40.45;102281.78;4959834;28;20039;-79
2022/10/09 07:59:07;;;;;;;18.75;3.17;;;28.40;93.10;;;28.12;40.46;102280.66;4939548;29;20039;-79
2022/10/09 08:01:34;;;;;;;13.70;2.55;;;28.40;93.30;;;27.93;40.81;102279.75;4958080;28;20031;-79
2022/10/09 08:04:09;;;;;;;19.02;3.45;;;28.30;93.00;;;27.32;41.42;102272.03;4954088;29;20037;-81
2022/10/09 08:06:35;;;;;;;13.55;2.80;;;28.10;93.30;;;27.00;41.97;102279.41;4940828;28;20032;-79
2022/10/09 08:09:04;;;;;;;14.52;3.60;;;27.90;93.00;;;26.97;42.05;102284.25;4948770;29;20054;-79
2022/10/09 08:11:40;;;;;;;20.05;3.38;;;27.90;93.40;;;26.86;41.70;102282.53;4955709;28;20051;-79
2022/10/09 08:14:06;;;;;;;15.27;2.97;;;27.90;93.50;;;26.95;42.10;102284.38;4940500;29;20035;-79
2022/10/09 08:16:32;;;;;;;15.85;4.47;;;28.00;93.50;;;27.01;42.17;102285.66;4956056;28;20023;-79
2022/10/09 08:19:02;;;;;;;12.55;2.55;;;28.10;92.70;;;27.14;41.80;102294.34;4957336;28;20043;-80
2022/10/09 08:21:29;;;;;;;16.83;4.40;;;28.20;93.00;;;27.29;41.88;102296.66;4955111;29;20061;-80
2022/10/09 08:23:58;;;;;;;15.23;3.90;;;28.40;92.90;;;27.31;42.19;102295.50;4939905;28;20050;-79
2022/10/09 08:26:33;;;;;;;15.25;3.05;;;28.40;92.30;;;27.12;42.00;102296.34;4948227;28;20039;-79
2022/10/09 08:29:02;;;;;;;15.52;2.63;;;28.20;92.20;;;26.88;42.16;102301.31;4956599;28;20087;-80
2022/10/09 08:31:29;;;;;;;10.90;2.58;;;28.00;92.60;;;26.64;42.27;102305.25;4944816;28;20057;-79
2022/10/09 08:34:00;;;;;;;16.63;2.03;;;27.90;92.50;;;26.53;42.27;102298.09;4937517;28;20043;-79
2022/10/09 08:36:29;;;;;;;15.88;2.75;;;27.60;93.00;;;26.37;42.96;102300.44;4938390;29;20066;-80
2022/10/09 08:38:55;;;;;;;14.88;3.08;;;27.40;93.10;;;26.11;43.01;102300.94;4969737;28;20138;-80
2022/10/09 08:41:48;;;;;;;14.93;2.70;;;27.10;93.10;;;25.68;43.67;102301.06;4954453;28;20031;-80
2022/10/09 08:44:41;;;;;;;18.88;5.90;;;26.70;93.50;;;25.29;44.72;102298.97;4953201;28;20055;-79
2022/10/09 08:47:22;;;;;;;13.98;2.35;;;26.30;93.80;;;24.92;45.05;102293.06;4955148;28;20027;-80
2022/10/09 08:50:22;;;;;;;16.45;2.67;;;25.90;94.30;;;24.51;45.93;102297.31;4945228;28;20058;-80
2022/10/09 08:53:12;;;;;;;18.35;3.30;;;25.40;94.80;;;24.15;46.18;102294.75;4965909;28;20055;-79
2022/10/09 08:56:11;;;;;;;17.08;2.83;;;25.00;95.30;;;23.81;47.96;102284.97;4954913;28;20068;-79
2022/10/09 08:58:43;;;;;;;11.50;2.60;;;24.50;95.80;;;23.57;48.00;102291.22;4957084;28;20455;-80
2022/10/09 09:01:47;;;;;;;15.88;2.40;;;24.20;96.00;;;23.22;48.27;102288.53;4953826;29;20023;-79
2022/10/09 09:04:53;;;;;;;12.35;2.38;;;23.80;96.70;;;22.90;48.24;102284.59;4962273;28;20027;-79
2022/10/09 09:07:59;;;;;;;11.70;2.30;;;23.30;97.10;;;22.35;50.25;102282.41;4956907;28;20046;-80
2022/10/09 09:10:47;;;;;;;13.77;2.53;;;22.70;97.80;;;21.88;51.47;102280.28;4962523;28;20031;-79
2022/10/09 09:13:51;;;;;;;13.73;2.10;;;22.20;98.20;;;21.38;52.46;102276.56;4966364;28;20077;-80
2022/10/09 09:16:39;;;;;;;12.95;2.20;;;21.60;99.00;;;20.61;53.43;102275.44;4926829;29;20077;-79
2022/10/09 09:19:58;;;;;;;24.50;3.10;;;21.00;99.90;;;19.93;55.60;102276.97;4938616;28;20039;-79
2022/10/09 09:22:38;;;;;;;14.90;2.78;;;20.30;99.90;;;19.26;57.51;102279.19;4947384;28;20043;-79
2022/10/09 09:25:28;;;;;;;15.82;2.50;;;19.80;99.90;;;18.69;58.80;102276.22;4955858;28;20031;-79
2022/10/09 09:28:22;;;;;;;14.80;1.98;;;19.40;99.90;;;18.33;60.20;102271.97;4939859;29;20038;-79
2022/10/09 09:31:07;;;;;;;20.45;2.60;;;19.10;99.90;;;17.95;60.51;102270.44;4954458;28;20038;-79
2022/10/09 09:33:44;;;;;;;15.63;2.30;;;18.90;99.90;;;17.58;61.48;102259.03;4954694;28;20153;-79
2022/10/09 09:36:35;;;;;;;15.02;2.17;;;18.60;99.90;;;17.47;62.52;102260.50;4957624;28;20431;-79
2022/10/09 09:39:03;;;;;;;24.48;2.42;;;18.40;99.90;;;17.22;63.24;102267.94;4964757;28;20034;-79
2022/10/09 09:41:35;;;;;;;16.80;2.88;;;18.30;99.90;;;17.11;64.16;102266.78;4939494;28;20102;-80
2022/10/09 09:44:01;;;;;;;12.30;2.10;;;18.10;99.90;;;17.06;64.17;102272.28;4958186;28;20050;-79
2022/10/09 09:46:34;;;;;;;16.63;2.35;;;18.10;99.90;;;17.08;64.81;102264.25;4943862;29;20039;-79
2022/10/09 09:49:16;;;;;;;14.68;2.17;;;18.00;99.90;;;17.11;64.95;102262.31;4976750;28;20094;-80
2022/10/09 09:51:42;;;;;;;14.73;1.90;;;18.10;99.90;;;17.14;64.53;102261.28;4944262;28;20055;-79
2022/10/09 09:54:47;;;;;;;22.90;2.25;;;18.10;99.90;;;17.17;64.34;102256.69;4975116;28;20031;-79
2022/10/09 09:57:42;;;;;;;13.05;1.90;;;18.10;99.90;;;17.19;64.79;102253.91;4969641;28;20059;-79
2022/10/09 10:00:22;;;;;;;10.65;1.88;;;18.10;99.90;;;17.28;64.44;102256.13;4970786;28;20078;-79
2022/10/09 10:03:00;;;;;;;11.63;1.85;;;18.10;99.90;;;17.34;63.90;102252.28;4958689;28;20147;-79
2022/10/09 10:05:37;;;;;;;17.13;2.38;;;18.20;99.90;;;17.25;64.00;102242.97;4960018;28;20082;-80
2022/10/09 10:08:27;;;;;;;16.25;2.42;;;18.10;99.90;;;17.04;64.12;102250.25;4966609;28;20040;-80
2022/10/09 10:11:07;;;;;;;13.05;2.13;;;18.00;99.90;;;17.05;64.42;102243.13;4962812;28;20034;-80
2022/10/09 10:13:48;;;;;;;14.98;2.08;;;17.90;99.90;;;17.00;64.84;102251.34;4943624;28;20050;-80
2022/10/09 10:16:41;;;;;;;13.95;1.67;;;17.90;99.90;;;16.95;64.97;102254.22;4943328;28;20465;-79
2022/10/09 10:19:36;;;;;;;10.43;1.77;;;17.90;99.90;;;16.95;64.55;102242.69;4957316;28;20035;-80
2022/10/09 10:22:21;;;;;;;17.75;2.20;;;17.90;99.90;;;17.00;65.24;102240.69;4969691;28;20083;-79
2022/10/09 10:24:55;;;;;;;15.77;2.30;;;17.90;99.90;;;17.02;64.81;102237.00;4946022;28;20023;-79
2022/10/09 10:27:39;;;;;;;11.90;1.90;;;17.90;99.90;;;17.03;65.21;102240.53;4943470;29;20094;-80
2022/10/09 10:30:11;;;;;;;11.57;1.88;;;17.90;99.90;;;17.00;64.71;102241.56;4959363;29;20500;-79
2022/10/09 10:33:03;;;;;;;14.25;1.80;;;17.90;99.90;;;16.90;65.55;102237.63;4943039;28;20110;-80
2022/10/09 10:35:40;;;;;;;10.82;1.85;;;17.80;99.90;;;16.88;65.13;102239.47;4960776;28;20053;-80
2022/10/09 10:38:46;;;;;;;;;;;17.80;99.90;;;16.89;64.61;102233.25;4976230;28;20158;-79
2022/10/09 10:41:58;;;;;;;13.90;1.67;;;17.80;99.90;;;16.85;65.90;102238.78;4958202;28;19914;-80
2022/10/09 10:45:03;;;;;;;15.27;2.00;;;17.60;99.90;;;16.64;65.20;102232.69;4957512;28;20051;-79
2022/10/09 10:47:40;;;;;;;17.40;1.80;;;17.60;99.90;;;16.48;65.67;102229.88;4963434;28;20039;-80
2022/10/09 10:50:21;;;;;;;15.25;1.52;;;17.40;99.90;;;16.27;65.53;102229.97;4959903;28;20404;-80
2022/10/09 10:53:33;;;;;;;12.73;1.45;;;17.20;99.90;;;16.07;65.82;102219.38;4942046;28;20031;-80
2022/10/09 10:56:14;;;;;;;11.65;1.67;;;17.00;99.90;;;15.85;66.51;102216.84;4960946;29;20051;-79
2022/10/09 10:59:26;;;;;;;12.07;1.85;;;16.80;99.90;;;15.75;68.13;102227.88;4961325;28;20043;-80
2022/10/09 11:02:13;;;;;;;18.42;1.88;;;16.70;99.90;;;15.69;68.22;102222.81;4962088;28;20059;-79
2022/10/09 11:04:48;;;;;;;13.68;1.45;;;16.60;99.90;;;15.65;67.60;102221.22;4959765;28;20058;-79
2022/10/09 11:07:42;;;;;;;9.85;1.77;;;16.60;99.90;;;15.74;67.03;102215.56;4974350;28;20536;-79
2022/10/09 11:10:45;;;;;;;11.32;1.60;;;16.60;99.90;;;15.87;67.25;102221.16;4975698;28;20083;-80
2022/10/09 11:13:31;;;;;;;14.77;1.58;;;16.70;99.90;;;15.88;66.46;102217.59;4958251;28;20046;-80
2022/10/09 11:16:16;;;;;;;11.75;1.63;;;16.70;99.90;;;15.95;66.10;102218.16;4945403;29;20034;-80